sensor_id;sensor_type;location;lat;lon;timestamp;P1;durP1;ratioP1;P2;durP2;ratioP2
41755;SDS011;27435;48.480;9.258;2023-09-08T00:01:37;7.57;;;4.30;;
41755;SDS011;27435;48.480;9.258;2023-09-08T00:04:03;10.50;;;4.10;;
41755;SDS011;27435;48.480;9.258;2023-09-08T00:06:29;6.53;;;4.53;;
41755;SDS011;27435;48.480;9.258;2023-09-08T00:08:54;6.93;;;4.25;;
41755;SDS011;27435;48.480;9.258;2023-09-08T00:11:20;9.75;;;4.43;;
41755;SDS011;27435;48.480;9.258;2023-09-08T00:13:45;6.28;;;3.88;;
41755;SDS011;27435;48.480;9.258;2023-09-08T00:16:11;8.43;;;4.78;;
41755;SDS011;27435;48.480;9.258;2023-09-08T00:18:37;9.88;;;4.93;;
41755;SDS011;27435;48.480;9.258;2023-09-08T00:21:02;8.23;;;4.45;;
41755;SDS011;27435;48.480;9.258;2023-09-08T00:23:28;15.82;;;4.32;;
41755;SDS011;27435;48.480;9.258;2023-09-08T00:25:54;8.25;;;4.80;;
41755;SDS011;27435;48.480;9.258;2023-09-08T00:28:19;7.82;;;3.90;;
41755;SDS011;27435;48.480;9.258;2023-09-08T00:30:45;7.18;;;4.68;;
41755;SDS011;27435;48.480;9.258;2023-09-08T00:33:10;10.38;;;4.22;;
41755;SDS011;27435;48.480;9.258;2023-09-08T00:35:38;9.35;;;4.78;;
41755;SDS011;27435;48.480;9.258;2023-09-08T00:38:04;7.65;;;4.28;;
41755;SDS011;27435;48.480;9.258;2023-09-08T00:40:29;6.03;;;4.57;;
41755;SDS011;27435;48.480;9.258;2023-09-08T00:42:55;7.70;;;4.50;;
41755;SDS011;27435;48.480;9.258;2023-09-08T00:45:21;8.07;;;4.47;;
41755;SDS011;27435;48.480;9.258;2023-09-08T00:47:47;6.93;;;4.43;;
41755;SDS011;27435;48.480;9.258;2023-09-08T00:50:12;9.25;;;4.97;;
41755;SDS011;27435;48.480;9.258;2023-09-08T00:52:38;7.35;;;5.05;;
41755;SDS011;27435;48.480;9.258;2023-09-08T00:55:04;7.95;;;4.80;;
41755;SDS011;27435;48.480;9.258;2023-09-08T00:57:30;6.93;;;4.80;;
41755;SDS011;27435;48.480;9.258;2023-09-08T00:59:56;8.32;;;4.68;;
41755;SDS011;27435;48.480;9.258;2023-09-08T01:02:22;9.95;;;4.70;;
41755;SDS011;27435;48.480;9.258;2023-09-08T01:04:48;7.47;;;4.88;;
41755;SDS011;27435;48.480;9.258;2023-09-08T01:07:14;7.57;;;5.20;;
41755;SDS011;27435;48.480;9.258;2023-09-08T01:09:41;11.27;;;5.32;;
41755;SDS011;27435;48.480;9.258;2023-09-08T01:12:07;9.45;;;5.18;;
41755;SDS011;27435;48.480;9.258;2023-09-08T01:14:33;7.63;;;5.13;;
41755;SDS011;27435;48.480;9.258;2023-09-08T01:16:58;7.88;;;4.47;;
41755;SDS011;27435;48.480;9.258;2023-09-08T01:19:24;10.20;;;5.22;;
41755;SDS011;27435;48.480;9.258;2023-09-08T01:25:05;8.98;;;5.13;;
41755;SDS011;27435;48.480;9.258;2023-09-08T01:27:45;8.10;;;5.40;;
41755;SDS011;27435;48.480;9.258;2023-09-08T01:30:13;10.30;;;5.38;;
41755;SDS011;27435;48.480;9.258;2023-09-08T01:32:40;9.30;;;5.93;;
41755;SDS011;27435;48.480;9.258;2023-09-08T01:35:06;10.57;;;7.50;;
41755;SDS011;27435;48.480;9.258;2023-09-08T01:37:32;13.30;;;6.82;;
41755;SDS011;27435;48.480;9.258;2023-09-08T01:39:58;10.73;;;8.60;;
41755;SDS011;27435;48.480;9.258;2023-09-08T01:42:23;11.18;;;7.90;;
41755;SDS011;27435;48.480;9.258;2023-09-08T01:44:49;7.80;;;6.07;;
41755;SDS011;27435;48.480;9.258;2023-09-08T01:47:15;9.15;;;6.38;;
41755;SDS011;27435;48.480;9.258;2023-09-08T01:49:41;10.90;;;6.35;;
41755;SDS011;27435;48.480;9.258;2023-09-08T01:52:07;7.28;;;5.53;;
41755;SDS011;27435;48.480;9.258;2023-09-08T01:54:32;8.85;;;5.35;;
41755;SDS011;27435;48.480;9.258;2023-09-08T01:56:58;10.07;;;5.80;;
41755;SDS011;27435;48.480;9.258;2023-09-08T01:59:24;10.57;;;5.20;;
41755;SDS011;27435;48.480;9.258;2023-09-08T02:01:49;12.10;;;5.85;;
41755;SDS011;27435;48.480;9.258;2023-09-08T02:04:15;9.02;;;6.43;;
41755;SDS011;27435;48.480;9.258;2023-09-08T02:06:40;11.75;;;6.32;;
41755;SDS011;27435;48.480;9.258;2023-09-08T02:09:07;10.15;;;6.28;;
41755;SDS011;27435;48.480;9.258;2023-09-08T02:11:35;9.40;;;6.03;;
41755;SDS011;27435;48.480;9.258;2023-09-08T02:14:00;8.10;;;6.15;;
41755;SDS011;27435;48.480;9.258;2023-09-08T02:16:26;13.02;;;6.00;;
41755;SDS011;27435;48.480;9.258;2023-09-08T02:18:51;8.82;;;6.07;;
41755;SDS011;27435;48.480;9.258;2023-09-08T02:21:17;8.30;;;5.68;;
41755;SDS011;27435;48.480;9.258;2023-09-08T02:23:43;11.32;;;5.85;;
41755;SDS011;27435;48.480;9.258;2023-09-08T02:26:08;8.65;;;6.20;;
41755;SDS011;27435;48.480;9.258;2023-09-08T02:28:34;8.32;;;5.90;;
41755;SDS011;27435;48.480;9.258;2023-09-08T02:30:59;12.23;;;6.70;;
41755;SDS011;27435;48.480;9.258;2023-09-08T02:33:25;9.57;;;6.07;;
41755;SDS011;27435;48.480;9.258;2023-09-08T02:35:51;10.48;;;6.53;;
41755;SDS011;27435;48.480;9.258;2023-09-08T02:38:16;8.40;;;6.55;;
41755;SDS011;27435;48.480;9.258;2023-09-08T02:40:42;8.88;;;6.10;;
41755;SDS011;27435;48.480;9.258;2023-09-08T02:43:08;9.63;;;6.68;;
41755;SDS011;27435;48.480;9.258;2023-09-08T02:45:34;10.95;;;6.53;;
41755;SDS011;27435;48.480;9.258;2023-09-08T02:47:59;11.07;;;6.65;;
41755;SDS011;27435;48.480;9.258;2023-09-08T02:50:25;11.07;;;6.55;;
41755;SDS011;27435;48.480;9.258;2023-09-08T02:52:50;12.75;;;6.85;;
41755;SDS011;27435;48.480;9.258;2023-09-08T02:55:17;9.52;;;6.28;;
41755;SDS011;27435;48.480;9.258;2023-09-08T02:57:43;9.80;;;6.15;;
41755;SDS011;27435;48.480;9.258;2023-09-08T03:00:08;10.63;;;6.63;;
41755;SDS011;27435;48.480;9.258;2023-09-08T03:02:34;10.27;;;7.10;;
41755;SDS011;27435;48.480;9.258;2023-09-08T03:05:00;12.10;;;6.45;;
41755;SDS011;27435;48.480;9.258;2023-09-08T03:07:26;14.88;;;6.63;;
41755;SDS011;27435;48.480;9.258;2023-09-08T03:09:52;11.63;;;6.93;;
41755;SDS011;27435;48.480;9.258;2023-09-08T03:12:18;10.93;;;6.78;;
41755;SDS011;27435;48.480;9.258;2023-09-08T03:14:44;13.38;;;8.18;;
41755;SDS011;27435;48.480;9.258;2023-09-08T03:17:10;11.05;;;6.50;;
41755;SDS011;27435;48.480;9.258;2023-09-08T03:19:38;9.02;;;6.60;;
41755;SDS011;27435;48.480;9.258;2023-09-08T03:22:04;9.35;;;6.68;;
41755;SDS011;27435;48.480;9.258;2023-09-08T03:24:30;13.38;;;5.95;;
41755;SDS011;27435;48.480;9.258;2023-09-08T03:26:55;9.80;;;6.55;;
41755;SDS011;27435;48.480;9.258;2023-09-08T03:29:22;11.68;;;7.18;;
41755;SDS011;27435;48.480;9.258;2023-09-08T03:31:48;12.93;;;7.15;;
41755;SDS011;27435;48.480;9.258;2023-09-08T03:34:14;8.70;;;6.43;;
41755;SDS011;27435;48.480;9.258;2023-09-08T03:36:39;11.48;;;7.10;;
41755;SDS011;27435;48.480;9.258;2023-09-08T03:39:05;11.15;;;6.55;;
41755;SDS011;27435;48.480;9.258;2023-09-08T03:41:30;10.82;;;7.47;;
41755;SDS011;27435;48.480;9.258;2023-09-08T03:43:56;13.80;;;7.15;;
41755;SDS011;27435;48.480;9.258;2023-09-08T03:46:22;11.93;;;7.47;;
41755;SDS011;27435;48.480;9.258;2023-09-08T03:48:49;11.30;;;6.97;;
41755;SDS011;27435;48.480;9.258;2023-09-08T03:51:15;11.93;;;7.88;;
41755;SDS011;27435;48.480;9.258;2023-09-08T03:53:40;12.45;;;7.65;;
41755;SDS011;27435;48.480;9.258;2023-09-08T03:56:06;11.38;;;7.53;;
41755;SDS011;27435;48.480;9.258;2023-09-08T03:58:31;10.30;;;7.25;;
41755;SDS011;27435;48.480;9.258;2023-09-08T04:00:57;12.07;;;7.47;;
41755;SDS011;27435;48.480;9.258;2023-09-08T04:03:23;9.05;;;6.93;;
41755;SDS011;27435;48.480;9.258;2023-09-08T04:05:48;11.15;;;6.95;;
41755;SDS011;27435;48.480;9.258;2023-09-08T04:08:14;13.70;;;7.82;;
41755;SDS011;27435;48.480;9.258;2023-09-08T04:10:40;9.93;;;6.68;;
41755;SDS011;27435;48.480;9.258;2023-09-08T04:13:05;12.35;;;7.13;;
41755;SDS011;27435;48.480;9.258;2023-09-08T04:15:31;10.50;;;7.25;;
41755;SDS011;27435;48.480;9.258;2023-09-08T04:17:56;11.05;;;8.05;;
41755;SDS011;27435;48.480;9.258;2023-09-08T04:20:22;11.15;;;7.10;;
41755;SDS011;27435;48.480;9.258;2023-09-08T04:22:48;10.93;;;7.82;;
41755;SDS011;27435;48.480;9.258;2023-09-08T04:25:14;14.02;;;7.72;;
41755;SDS011;27435;48.480;9.258;2023-09-08T04:27:39;12.23;;;8.38;;
41755;SDS011;27435;48.480;9.258;2023-09-08T04:30:05;16.08;;;8.05;;
41755;SDS011;27435;48.480;9.258;2023-09-08T04:32:31;9.63;;;7.35;;
41755;SDS011;27435;48.480;9.258;2023-09-08T04:34:57;10.95;;;6.95;;
41755;SDS011;27435;48.480;9.258;2023-09-08T04:37:23;11.17;;;7.80;;
41755;SDS011;27435;48.480;9.258;2023-09-08T04:39:49;11.93;;;7.82;;
41755;SDS011;27435;48.480;9.258;2023-09-08T04:42:14;12.63;;;7.60;;
41755;SDS011;27435;48.480;9.258;2023-09-08T04:44:40;11.57;;;7.95;;
41755;SDS011;27435;48.480;9.258;2023-09-08T04:47:06;15.35;;;7.80;;
41755;SDS011;27435;48.480;9.258;2023-09-08T04:49:31;15.98;;;13.40;;
41755;SDS011;27435;48.480;9.258;2023-09-08T04:51:57;14.60;;;9.18;;
41755;SDS011;27435;48.480;9.258;2023-09-08T04:54:23;11.85;;;8.70;;
41755;SDS011;27435;48.480;9.258;2023-09-08T04:56:52;10.27;;;7.25;;
41755;SDS011;27435;48.480;9.258;2023-09-08T04:59:18;16.88;;;7.90;;
41755;SDS011;27435;48.480;9.258;2023-09-08T05:01:43;12.93;;;7.68;;
41755;SDS011;27435;48.480;9.258;2023-09-08T05:04:09;12.82;;;8.25;;
41755;SDS011;27435;48.480;9.258;2023-09-08T05:06:35;13.30;;;7.00;;
41755;SDS011;27435;48.480;9.258;2023-09-08T05:09:01;12.20;;;7.97;;
41755;SDS011;27435;48.480;9.258;2023-09-08T05:11:27;12.82;;;8.07;;
41755;SDS011;27435;48.480;9.258;2023-09-08T05:13:53;12.82;;;8.15;;
41755;SDS011;27435;48.480;9.258;2023-09-08T05:16:18;12.52;;;8.30;;
41755;SDS011;27435;48.480;9.258;2023-09-08T05:18:51;11.82;;;8.30;;
41755;SDS011;27435;48.480;9.258;2023-09-08T05:21:17;12.10;;;7.80;;
41755;SDS011;27435;48.480;9.258;2023-09-08T05:23:42;11.27;;;7.50;;
41755;SDS011;27435;48.480;9.258;2023-09-08T05:26:08;13.48;;;8.05;;
41755;SDS011;27435;48.480;9.258;2023-09-08T05:28:33;13.50;;;8.35;;
41755;SDS011;27435;48.480;9.258;2023-09-08T05:30:59;11.63;;;7.53;;
41755;SDS011;27435;48.480;9.258;2023-09-08T05:33:25;11.52;;;7.85;;
41755;SDS011;27435;48.480;9.258;2023-09-08T05:35:50;22.77;;;7.78;;
41755;SDS011;27435;48.480;9.258;2023-09-08T05:38:16;11.52;;;7.90;;
41755;SDS011;27435;48.480;9.258;2023-09-08T05:40:41;10.70;;;6.75;;
41755;SDS011;27435;48.480;9.258;2023-09-08T05:43:08;9.48;;;6.80;;
41755;SDS011;27435;48.480;9.258;2023-09-08T05:45:33;13.20;;;7.32;;
41755;SDS011;27435;48.480;9.258;2023-09-08T05:47:59;12.00;;;7.47;;
41755;SDS011;27435;48.480;9.258;2023-09-08T05:50:25;11.23;;;7.22;;
41755;SDS011;27435;48.480;9.258;2023-09-08T05:52:51;12.70;;;7.53;;
41755;SDS011;27435;48.480;9.258;2023-09-08T05:55:17;10.80;;;7.55;;
41755;SDS011;27435;48.480;9.258;2023-09-08T05:57:43;14.07;;;7.88;;
41755;SDS011;27435;48.480;9.258;2023-09-08T06:00:08;12.35;;;7.20;;
41755;SDS011;27435;48.480;9.258;2023-09-08T06:02:34;12.82;;;7.18;;
41755;SDS011;27435;48.480;9.258;2023-09-08T06:05:00;13.07;;;7.68;;
41755;SDS011;27435;48.480;9.258;2023-09-08T06:07:25;11.50;;;7.35;;
41755;SDS011;27435;48.480;9.258;2023-09-08T06:09:51;16.02;;;6.95;;
41755;SDS011;27435;48.480;9.258;2023-09-08T06:12:17;12.38;;;6.45;;
41755;SDS011;27435;48.480;9.258;2023-09-08T06:14:42;9.73;;;6.75;;
41755;SDS011;27435;48.480;9.258;2023-09-08T06:17:09;12.05;;;7.75;;
41755;SDS011;27435;48.480;9.258;2023-09-08T06:19:35;12.55;;;7.68;;
41755;SDS011;27435;48.480;9.258;2023-09-08T06:22:00;9.95;;;6.88;;
41755;SDS011;27435;48.480;9.258;2023-09-08T06:24:26;12.00;;;6.53;;
41755;SDS011;27435;48.480;9.258;2023-09-08T06:26:52;12.40;;;6.88;;
41755;SDS011;27435;48.480;9.258;2023-09-08T06:29:17;10.88;;;6.82;;
41755;SDS011;27435;48.480;9.258;2023-09-08T06:31:43;9.90;;;6.40;;
41755;SDS011;27435;48.480;9.258;2023-09-08T06:34:08;11.82;;;6.60;;
41755;SDS011;27435;48.480;9.258;2023-09-08T06:36:34;8.25;;;6.32;;
41755;SDS011;27435;48.480;9.258;2023-09-08T06:38:59;11.02;;;6.65;;
41755;SDS011;27435;48.480;9.258;2023-09-08T06:41:25;11.55;;;6.90;;
41755;SDS011;27435;48.480;9.258;2023-09-08T06:43:52;9.32;;;6.97;;
41755;SDS011;27435;48.480;9.258;2023-09-08T06:46:18;10.38;;;6.82;;
41755;SDS011;27435;48.480;9.258;2023-09-08T06:48:44;12.15;;;6.68;;
41755;SDS011;27435;48.480;9.258;2023-09-08T06:51:09;9.43;;;5.85;;
41755;SDS011;27435;48.480;9.258;2023-09-08T06:53:35;10.13;;;5.75;;
41755;SDS011;27435;48.480;9.258;2023-09-08T06:56:01;8.23;;;5.80;;
41755;SDS011;27435;48.480;9.258;2023-09-08T06:58:27;7.53;;;5.47;;
41755;SDS011;27435;48.480;9.258;2023-09-08T07:00:53;7.50;;;5.55;;
41755;SDS011;27435;48.480;9.258;2023-09-08T07:03:19;8.07;;;5.70;;
41755;SDS011;27435;48.480;9.258;2023-09-08T07:05:47;9.50;;;5.63;;
41755;SDS011;27435;48.480;9.258;2023-09-08T07:08:13;9.00;;;5.60;;
41755;SDS011;27435;48.480;9.258;2023-09-08T07:10:38;7.55;;;4.80;;
41755;SDS011;27435;48.480;9.258;2023-09-08T07:13:04;9.23;;;5.72;;
41755;SDS011;27435;48.480;9.258;2023-09-08T07:15:29;9.30;;;5.68;;
41755;SDS011;27435;48.480;9.258;2023-09-08T07:17:55;8.27;;;5.57;;
41755;SDS011;27435;48.480;9.258;2023-09-08T07:20:21;9.07;;;5.35;;
41755;SDS011;27435;48.480;9.258;2023-09-08T07:22:46;12.68;;;5.00;;
41755;SDS011;27435;48.480;9.258;2023-09-08T07:25:12;8.38;;;5.50;;
41755;SDS011;27435;48.480;9.258;2023-09-08T07:27:38;7.80;;;5.18;;
41755;SDS011;27435;48.480;9.258;2023-09-08T07:30:04;7.85;;;5.28;;
41755;SDS011;27435;48.480;9.258;2023-09-08T07:32:31;9.02;;;5.22;;
41755;SDS011;27435;48.480;9.258;2023-09-08T07:34:57;7.25;;;5.20;;
41755;SDS011;27435;48.480;9.258;2023-09-08T07:37:23;10.23;;;5.45;;
41755;SDS011;27435;48.480;9.258;2023-09-08T07:39:52;9.80;;;6.75;;
41755;SDS011;27435;48.480;9.258;2023-09-08T07:42:18;19.73;;;6.40;;
41755;SDS011;27435;48.480;9.258;2023-09-08T07:44:44;17.90;;;6.50;;
41755;SDS011;27435;48.480;9.258;2023-09-08T07:47:10;13.38;;;6.90;;
41755;SDS011;27435;48.480;9.258;2023-09-08T07:49:36;12.02;;;6.25;;
41755;SDS011;27435;48.480;9.258;2023-09-08T07:52:01;12.48;;;6.68;;
41755;SDS011;27435;48.480;9.258;2023-09-08T07:54:29;9.75;;;5.82;;
41755;SDS011;27435;48.480;9.258;2023-09-08T07:56:55;10.88;;;5.72;;
41755;SDS011;27435;48.480;9.258;2023-09-08T07:59:20;11.98;;;6.63;;
41755;SDS011;27435;48.480;9.258;2023-09-08T08:01:46;13.23;;;6.43;;
41755;SDS011;27435;48.480;9.258;2023-09-08T08:04:11;9.43;;;6.30;;
41755;SDS011;27435;48.480;9.258;2023-09-08T08:06:37;11.45;;;5.75;;
41755;SDS011;27435;48.480;9.258;2023-09-08T08:09:03;10.48;;;5.65;;
41755;SDS011;27435;48.480;9.258;2023-09-08T08:11:28;9.65;;;5.88;;
41755;SDS011;27435;48.480;9.258;2023-09-08T08:13:54;12.63;;;6.40;;
41755;SDS011;27435;48.480;9.258;2023-09-08T08:16:21;7.65;;;5.20;;
41755;SDS011;27435;48.480;9.258;2023-09-08T08:18:47;7.72;;;5.85;;
41755;SDS011;27435;48.480;9.258;2023-09-08T08:21:13;13.35;;;6.65;;
41755;SDS011;27435;48.480;9.258;2023-09-08T08:23:39;10.57;;;5.75;;
41755;SDS011;27435;48.480;9.258;2023-09-08T08:26:05;10.60;;;5.72;;
41755;SDS011;27435;48.480;9.258;2023-09-08T08:28:31;10.38;;;6.15;;
41755;SDS011;27435;48.480;9.258;2023-09-08T08:30:57;11.00;;;5.72;;
41755;SDS011;27435;48.480;9.258;2023-09-08T08:33:23;12.38;;;5.57;;
41755;SDS011;27435;48.480;9.258;2023-09-08T08:35:51;7.80;;;5.10;;
41755;SDS011;27435;48.480;9.258;2023-09-08T08:38:17;11.43;;;5.35;;
41755;SDS011;27435;48.480;9.258;2023-09-08T08:40:44;15.90;;;6.03;;
41755;SDS011;27435;48.480;9.258;2023-09-08T08:43:10;9.63;;;5.40;;
41755;SDS011;27435;48.480;9.258;2023-09-08T08:45:36;8.65;;;4.70;;
41755;SDS011;27435;48.480;9.258;2023-09-08T08:48:04;11.68;;;4.68;;
41755;SDS011;27435;48.480;9.258;2023-09-08T08:50:31;7.85;;;4.88;;
41755;SDS011;27435;48.480;9.258;2023-09-08T08:52:58;7.53;;;4.40;;
41755;SDS011;27435;48.480;9.258;2023-09-08T08:55:26;8.35;;;5.80;;
41755;SDS011;27435;48.480;9.258;2023-09-08T08:57:54;11.02;;;5.15;;
41755;SDS011;27435;48.480;9.258;2023-09-08T09:00:25;10.80;;;4.68;;
41755;SDS011;27435;48.480;9.258;2023-09-08T09:02:52;8.07;;;4.95;;
41755;SDS011;27435;48.480;9.258;2023-09-08T09:05:18;8.73;;;4.95;;
41755;SDS011;27435;48.480;9.258;2023-09-08T09:07:44;8.60;;;5.10;;
41755;SDS011;27435;48.480;9.258;2023-09-08T09:10:10;8.00;;;4.70;;
41755;SDS011;27435;48.480;9.258;2023-09-08T09:12:36;6.35;;;4.90;;
41755;SDS011;27435;48.480;9.258;2023-09-08T09:15:06;11.82;;;5.18;;
41755;SDS011;27435;48.480;9.258;2023-09-08T09:17:33;9.25;;;4.78;;
41755;SDS011;27435;48.480;9.258;2023-09-08T09:20:12;7.13;;;4.45;;
41755;SDS011;27435;48.480;9.258;2023-09-08T09:22:43;6.43;;;4.53;;
41755;SDS011;27435;48.480;9.258;2023-09-08T09:25:09;11.82;;;4.78;;
41755;SDS011;27435;48.480;9.258;2023-09-08T09:27:35;8.23;;;4.30;;
41755;SDS011;27435;48.480;9.258;2023-09-08T09:30:04;8.93;;;5.00;;
41755;SDS011;27435;48.480;9.258;2023-09-08T09:32:30;8.82;;;4.65;;
41755;SDS011;27435;48.480;9.258;2023-09-08T09:34:56;9.35;;;4.72;;
41755;SDS011;27435;48.480;9.258;2023-09-08T09:37:25;10.63;;;4.90;;
41755;SDS011;27435;48.480;9.258;2023-09-08T09:39:52;9.75;;;4.68;;
41755;SDS011;27435;48.480;9.258;2023-09-08T09:42:19;12.80;;;5.55;;
41755;SDS011;27435;48.480;9.258;2023-09-08T09:44:49;9.57;;;6.03;;
41755;SDS011;27435;48.480;9.258;2023-09-08T09:47:16;9.70;;;5.40;;
41755;SDS011;27435;48.480;9.258;2023-09-08T09:49:46;8.57;;;4.97;;
41755;SDS011;27435;48.480;9.258;2023-09-08T09:52:13;10.75;;;4.60;;
41755;SDS011;27435;48.480;9.258;2023-09-08T09:54:48;8.90;;;5.38;;
41755;SDS011;27435;48.480;9.258;2023-09-08T09:57:16;8.95;;;5.05;;
41755;SDS011;27435;48.480;9.258;2023-09-08T09:59:44;7.60;;;5.13;;
41755;SDS011;27435;48.480;9.258;2023-09-08T10:02:14;9.55;;;4.97;;
41755;SDS011;27435;48.480;9.258;2023-09-08T10:04:40;10.63;;;4.70;;
41755;SDS011;27435;48.480;9.258;2023-09-08T10:07:06;7.43;;;5.05;;
41755;SDS011;27435;48.480;9.258;2023-09-08T10:09:32;9.52;;;5.13;;
41755;SDS011;27435;48.480;9.258;2023-09-08T10:12:00;9.85;;;5.15;;
41755;SDS011;27435;48.480;9.258;2023-09-08T10:14:29;7.55;;;5.07;;
41755;SDS011;27435;48.480;9.258;2023-09-08T10:16:57;8.23;;;5.05;;
41755;SDS011;27435;48.480;9.258;2023-09-08T10:19:24;7.57;;;4.82;;
41755;SDS011;27435;48.480;9.258;2023-09-08T10:21:51;6.47;;;4.63;;
41755;SDS011;27435;48.480;9.258;2023-09-08T10:26:52;11.15;;;4.97;;
41755;SDS011;27435;48.480;9.258;2023-09-08T10:29:37;11.98;;;6.47;;
41755;SDS011;27435;48.480;9.258;2023-09-08T10:32:04;8.20;;;4.78;;
41755;SDS011;27435;48.480;9.258;2023-09-08T10:34:32;7.78;;;5.03;;
41755;SDS011;27435;48.480;9.258;2023-09-08T10:36:59;8.25;;;5.18;;
41755;SDS011;27435;48.480;9.258;2023-09-08T10:44:43;6.20;;;4.93;;
41755;SDS011;27435;48.480;9.258;2023-09-08T10:47:09;7.28;;;4.65;;
41755;SDS011;27435;48.480;9.258;2023-09-08T10:49:35;7.63;;;5.20;;
41755;SDS011;27435;48.480;9.258;2023-09-08T10:52:07;7.32;;;4.45;;
41755;SDS011;27435;48.480;9.258;2023-09-08T10:54:40;9.85;;;4.72;;
41755;SDS011;27435;48.480;9.258;2023-09-08T10:57:08;9.43;;;5.15;;
41755;SDS011;27435;48.480;9.258;2023-09-08T10:59:38;9.32;;;4.85;;
41755;SDS011;27435;48.480;9.258;2023-09-08T11:02:04;9.15;;;4.97;;
41755;SDS011;27435;48.480;9.258;2023-09-08T11:04:30;10.50;;;5.13;;
41755;SDS011;27435;48.480;9.258;2023-09-08T11:06:58;10.20;;;4.43;;
41755;SDS011;27435;48.480;9.258;2023-09-08T11:09:25;13.52;;;4.43;;
41755;SDS011;27435;48.480;9.258;2023-09-08T11:11:51;12.07;;;4.63;;
41755;SDS011;27435;48.480;9.258;2023-09-08T11:14:16;7.03;;;3.97;;
41755;SDS011;27435;48.480;9.258;2023-09-08T11:16:42;6.72;;;4.00;;
41755;SDS011;27435;48.480;9.258;2023-09-08T11:19:08;7.65;;;4.40;;
41755;SDS011;27435;48.480;9.258;2023-09-08T11:21:35;6.75;;;4.60;;
41755;SDS011;27435;48.480;9.258;2023-09-08T11:24:02;9.13;;;5.50;;
41755;SDS011;27435;48.480;9.258;2023-09-08T11:26:29;8.70;;;4.35;;
41755;SDS011;27435;48.480;9.258;2023-09-08T11:28:59;9.05;;;4.70;;
41755;SDS011;27435;48.480;9.258;2023-09-08T11:31:25;10.13;;;4.40;;
41755;SDS011;27435;48.480;9.258;2023-09-08T11:33:54;8.43;;;4.35;;
41755;SDS011;27435;48.480;9.258;2023-09-08T11:36:20;7.22;;;4.25;;
41755;SDS011;27435;48.480;9.258;2023-09-08T11:38:45;8.15;;;4.72;;
41755;SDS011;27435;48.480;9.258;2023-09-08T11:41:11;9.68;;;4.82;;
41755;SDS011;27435;48.480;9.258;2023-09-08T11:43:37;6.97;;;4.88;;
41755;SDS011;27435;48.480;9.258;2023-09-08T11:46:03;7.05;;;4.40;;
41755;SDS011;27435;48.480;9.258;2023-09-08T11:48:29;8.75;;;4.07;;
41755;SDS011;27435;48.480;9.258;2023-09-08T11:50:56;6.57;;;4.22;;
41755;SDS011;27435;48.480;9.258;2023-09-08T11:53:22;6.55;;;4.43;;
41755;SDS011;27435;48.480;9.258;2023-09-08T11:55:48;6.78;;;4.32;;
41755;SDS011;27435;48.480;9.258;2023-09-08T11:58:14;9.18;;;4.47;;
41755;SDS011;27435;48.480;9.258;2023-09-08T12:00:41;10.02;;;4.10;;
41755;SDS011;27435;48.480;9.258;2023-09-08T12:03:11;6.53;;;4.07;;
41755;SDS011;27435;48.480;9.258;2023-09-08T12:05:37;7.55;;;3.80;;
41755;SDS011;27435;48.480;9.258;2023-09-08T12:08:04;6.20;;;4.07;;
41755;SDS011;27435;48.480;9.258;2023-09-08T12:10:42;8.05;;;4.30;;
41755;SDS011;27435;48.480;9.258;2023-09-08T12:13:08;8.00;;;3.50;;
41755;SDS011;27435;48.480;9.258;2023-09-08T12:15:39;8.35;;;3.85;;
41755;SDS011;27435;48.480;9.258;2023-09-08T12:18:09;7.82;;;4.20;;
41755;SDS011;27435;48.480;9.258;2023-09-08T12:20:37;8.23;;;3.88;;
41755;SDS011;27435;48.480;9.258;2023-09-08T12:23:05;5.35;;;4.00;;
41755;SDS011;27435;48.480;9.258;2023-09-08T12:25:33;10.48;;;4.13;;
41755;SDS011;27435;48.480;9.258;2023-09-08T12:28:13;9.13;;;4.13;;
41755;SDS011;27435;48.480;9.258;2023-09-08T12:30:39;6.35;;;4.40;;
41755;SDS011;27435;48.480;9.258;2023-09-08T12:33:04;5.38;;;3.85;;
41755;SDS011;27435;48.480;9.258;2023-09-08T12:35:34;5.60;;;3.47;;
41755;SDS011;27435;48.480;9.258;2023-09-08T12:38:01;8.48;;;3.67;;
41755;SDS011;27435;48.480;9.258;2023-09-08T12:40:28;5.63;;;3.60;;
41755;SDS011;27435;48.480;9.258;2023-09-08T12:43:02;5.10;;;3.47;;
41755;SDS011;27435;48.480;9.258;2023-09-08T12:45:28;4.70;;;3.08;;
41755;SDS011;27435;48.480;9.258;2023-09-08T12:47:57;5.78;;;3.80;;
41755;SDS011;27435;48.480;9.258;2023-09-08T12:50:27;10.52;;;4.07;;
41755;SDS011;27435;48.480;9.258;2023-09-08T12:52:52;5.13;;;3.28;;
41755;SDS011;27435;48.480;9.258;2023-09-08T12:55:18;8.15;;;3.92;;
41755;SDS011;27435;48.480;9.258;2023-09-08T12:57:44;6.85;;;3.85;;
41755;SDS011;27435;48.480;9.258;2023-09-08T13:00:10;4.75;;;3.28;;
41755;SDS011;27435;48.480;9.258;2023-09-08T13:02:36;5.90;;;3.58;;
41755;SDS011;27435;48.480;9.258;2023-09-08T13:05:02;5.07;;;3.25;;
41755;SDS011;27435;48.480;9.258;2023-09-08T13:07:28;6.18;;;3.60;;
41755;SDS011;27435;48.480;9.258;2023-09-08T13:09:54;7.72;;;3.58;;
41755;SDS011;27435;48.480;9.258;2023-09-08T13:12:20;4.90;;;3.78;;
41755;SDS011;27435;48.480;9.258;2023-09-08T13:14:45;4.50;;;3.50;;
41755;SDS011;27435;48.480;9.258;2023-09-08T13:17:11;5.07;;;3.40;;
41755;SDS011;27435;48.480;9.258;2023-09-08T13:19:37;6.95;;;3.30;;
41755;SDS011;27435;48.480;9.258;2023-09-08T13:22:06;7.40;;;3.85;;
41755;SDS011;27435;48.480;9.258;2023-09-08T13:24:32;6.00;;;3.53;;
41755;SDS011;27435;48.480;9.258;2023-09-08T13:26:59;5.00;;;3.50;;
41755;SDS011;27435;48.480;9.258;2023-09-08T13:29:25;9.75;;;3.22;;
41755;SDS011;27435;48.480;9.258;2023-09-08T13:31:52;7.00;;;3.38;;
41755;SDS011;27435;48.480;9.258;2023-09-08T13:34:18;5.22;;;3.38;;
41755;SDS011;27435;48.480;9.258;2023-09-08T13:36:43;4.75;;;3.20;;
41755;SDS011;27435;48.480;9.258;2023-09-08T13:39:09;4.97;;;3.47;;
41755;SDS011;27435;48.480;9.258;2023-09-08T13:41:45;8.38;;;3.72;;
41755;SDS011;27435;48.480;9.258;2023-09-08T13:44:14;7.75;;;3.58;;
41755;SDS011;27435;48.480;9.258;2023-09-08T13:46:41;5.07;;;2.88;;
41755;SDS011;27435;48.480;9.258;2023-09-08T13:49:06;8.95;;;3.03;;
41755;SDS011;27435;48.480;9.258;2023-09-08T13:51:32;7.35;;;3.70;;
41755;SDS011;27435;48.480;9.258;2023-09-08T13:53:58;9.15;;;3.53;;
41755;SDS011;27435;48.480;9.258;2023-09-08T13:56:24;6.28;;;3.60;;
41755;SDS011;27435;48.480;9.258;2023-09-08T13:58:51;6.97;;;3.58;;
41755;SDS011;27435;48.480;9.258;2023-09-08T14:01:16;5.55;;;3.38;;
41755;SDS011;27435;48.480;9.258;2023-09-08T14:03:42;4.68;;;3.10;;
41755;SDS011;27435;48.480;9.258;2023-09-08T14:06:08;5.68;;;3.65;;
41755;SDS011;27435;48.480;9.258;2023-09-08T14:08:33;8.30;;;3.60;;
41755;SDS011;27435;48.480;9.258;2023-09-08T14:10:59;8.32;;;3.78;;
41755;SDS011;27435;48.480;9.258;2023-09-08T14:13:24;7.60;;;3.80;;
41755;SDS011;27435;48.480;9.258;2023-09-08T14:15:50;5.63;;;3.90;;
41755;SDS011;27435;48.480;9.258;2023-09-08T14:18:16;6.95;;;3.40;;
41755;SDS011;27435;48.480;9.258;2023-09-08T14:20:41;5.30;;;3.65;;
41755;SDS011;27435;48.480;9.258;2023-09-08T14:23:07;6.20;;;3.25;;
41755;SDS011;27435;48.480;9.258;2023-09-08T14:25:33;5.65;;;3.15;;
41755;SDS011;27435;48.480;9.258;2023-09-08T14:28:01;7.22;;;3.42;;
41755;SDS011;27435;48.480;9.258;2023-09-08T14:30:28;6.38;;;3.63;;
41755;SDS011;27435;48.480;9.258;2023-09-08T14:32:54;6.28;;;3.33;;
41755;SDS011;27435;48.480;9.258;2023-09-08T14:35:20;7.28;;;3.45;;
41755;SDS011;27435;48.480;9.258;2023-09-08T14:37:46;5.57;;;3.25;;
41755;SDS011;27435;48.480;9.258;2023-09-08T14:40:13;10.88;;;3.28;;
41755;SDS011;27435;48.480;9.258;2023-09-08T14:42:38;6.70;;;3.30;;
41755;SDS011;27435;48.480;9.258;2023-09-08T14:45:04;4.95;;;3.50;;
41755;SDS011;27435;48.480;9.258;2023-09-08T14:47:30;5.82;;;3.15;;
41755;SDS011;27435;48.480;9.258;2023-09-08T14:49:57;6.20;;;3.45;;